Time;durP1;ratioP1;P1;durP2;ratioP2;P2;SDS_P1;SDS_P2;PMS_P1;PMS_P2;Temp;Humidity;BMP_temperature;BMP_pressure;BME280_temperature;BME280_humidity;BME280_pressure;Samples;Min_cycle;Max_cycle;Signal;HPM_P1;HPM_P2
2022/03/26 00:01:37;;;;;;;21.27;11.70;;;180.00;1868.80;;;;;;4955508;29;20062;-55
2022/03/26 00:04:03;;;;;;;18.90;11.02;;;180.00;1868.80;;;;;;4955547;29;20063;-55
2022/03/26 00:06:29;;;;;;;25.00;11.38;;;180.00;1868.80;;;;;;4955551;29;20082;-56
2022/03/26 00:08:55;;;;;;;20.85;11.63;;;180.10;1868.80;;;;;;4956232;28;20417;-56
2022/03/26 00:11:21;;;;;;;19.30;11.43;;;180.10;1843.20;;;;;;4953754;29;20499;-55
2022/03/26 00:13:47;;;;;;;17.77;11.15;;;180.10;1843.20;;;;;;4973632;28;20043;-56
2022/03/26 00:16:13;;;;;;;20.05;13.68;;;204.80;1843.20;;;;;;4974907;28;20030;-55
2022/03/26 00:18:38;;;;;;;15.15;10.75;;;204.90;1843.20;;;;;;4974654;28;20492;-55
2022/03/26 00:21:05;;;;;;;24.67;13.23;;;204.90;1843.20;;;;;;4974659;28;20122;-56
2022/03/26 00:23:31;;;;;;;19.20;12.40;;;204.80;1843.20;;;;;;4974781;28;20054;-56
2022/03/26 00:25:59;;;;;;;19.23;12.20;;;204.80;1843.20;;;;;;4974189;28;20052;-56
2022/03/26 00:28:26;;;;;;;29.27;18.38;;;180.10;1843.20;;;;;;4974148;28;20556;-57
2022/03/26 00:30:52;;;;;;;23.02;12.63;;;180.10;1868.80;;;;;;4974442;28;20075;-56
2022/03/26 00:33:18;;;;;;;25.80;12.55;;;180.10;1868.80;;;;;;4974138;28;20069;-56
2022/03/26 00:35:46;;;;;;;19.27;11.93;;;180.00;1868.80;;;;;;4974501;28;20080;-57
2022/03/26 00:38:12;;;;;;;25.70;11.98;;;180.00;1868.80;;;;;;4974227;28;20074;-56
2022/03/26 00:40:40;;;;;;;22.05;11.82;;;180.00;1868.80;;;;;;4973856;28;20394;-56
2022/03/26 00:43:06;;;;;;;20.60;11.80;;;179.90;1894.40;;;;;;4973786;28;20530;-56
2022/03/26 00:45:34;;;;;;;23.35;12.93;;;179.90;1894.40;;;;;;4974386;28;20039;-56
2022/03/26 00:48:01;;;;;;;21.92;12.32;;;179.90;1894.40;;;;;;4972817;28;20101;-56
2022/03/26 00:50:27;;;;;;;23.27;13.10;;;180.00;1868.80;;;;;;4973935;28;20114;-56
2022/03/26 00:52:53;;;;;;;18.23;11.18;;;180.00;1868.80;;;;;;4974178;28;20038;-56
2022/03/26 00:55:19;;;;;;;18.77;11.55;;;180.00;1868.80;;;;;;4973779;28;20027;-56
2022/03/26 00:57:45;;;;;;;18.70;11.10;;;179.90;1894.40;;;;;;4973600;28;20026;-56
2022/03/26 01:00:12;;;;;;;16.85;10.38;;;179.80;1894.40;;;;;;4973841;28;20030;-56
2022/03/26 01:02:39;;;;;;;16.73;11.05;;;179.80;1894.40;;;;;;4973580;28;20039;-56
2022/03/26 01:05:05;;;;;;;20.38;12.07;;;179.70;1894.40;;;;;;4973409;28;20054;-57
2022/03/26 01:07:32;;;;;;;21.73;13.73;;;179.70;1920.00;;;;;;4973823;28;20034;-56
2022/03/26 01:09:58;;;;;;;19.90;12.07;;;179.70;1920.00;;;;;;4973367;28;20042;-56
2022/03/26 01:12:25;;;;;;;20.42;12.27;;;179.70;1920.00;;;;;;4973642;28;20060;-57
2022/03/26 01:14:52;;;;;;;20.35;12.30;;;179.60;1920.00;;;;;;4973770;28;20034;-57
2022/03/26 01:17:19;;;;;;;19.60;12.02;;;179.60;1894.40;;;;;;4973706;28;20022;-56
2022/03/26 01:19:45;;;;;;;19.65;13.02;;;179.60;1894.40;;;;;;4973423;28;20532;-56
2022/03/26 01:22:12;;;;;;;22.48;13.43;;;179.60;1920.00;;;;;;4973567;28;20037;-56
2022/03/26 01:24:38;;;;;;;22.00;12.57;;;179.60;1894.40;;;;;;4973132;28;20081;-56
2022/03/26 01:27:06;;;;;;;18.63;14.07;;;179.60;1894.40;;;;;;4973452;28;20027;-56
2022/03/26 01:29:32;;;;;;;19.85;14.27;;;179.70;1894.40;;;;;;4973465;28;20493;-56
2022/03/26 01:31:58;;;;;;;20.10;13.63;;;179.50;1920.00;;;;;;4973180;28;20031;-56
2022/03/26 01:34:26;;;;;;;18.48;11.57;;;179.60;1920.00;;;;;;4973539;28;20511;-56
2022/03/26 01:36:52;;;;;;;19.23;11.07;;;179.50;1920.00;;;;;;4973350;28;20169;-55
2022/03/26 01:39:18;;;;;;;19.48;11.57;;;179.60;1920.00;;;;;;4973018;28;20066;-57
2022/03/26 01:41:45;;;;;;;22.38;12.52;;;179.50;1920.00;;;;;;4973058;28;20042;-56
2022/03/26 01:44:14;;;;;;;16.33;10.27;;;179.20;1945.60;;;;;;4973034;28;20038;-56
2022/03/26 01:46:50;;;;;;;23.80;10.85;;;179.30;1945.60;;;;;;4973198;28;20115;-56
2022/03/26 01:49:17;;;;;;;16.60;9.05;;;179.20;1945.60;;;;;;4972685;28;20038;-56
2022/03/26 01:51:43;;;;;;;19.23;11.18;;;179.20;1971.20;;;;;;4973130;28;20355;-56
2022/03/26 01:54:10;;;;;;;19.02;11.10;;;179.30;1945.60;;;;;;4972606;28;20031;-56
2022/03/26 01:56:37;;;;;;;21.17;12.13;;;179.30;1945.60;;;;;;4972620;28;20478;-56
2022/03/26 01:59:05;;;;;;;16.77;11.30;;;179.20;1945.60;;;;;;4972537;28;20023;-56
2022/03/26 02:01:34;;;;;;;21.90;11.82;;;179.30;1945.60;;;;;;4972911;28;20049;-56
2022/03/26 02:04:04;;;;;;;30.50;23.30;;;179.30;1945.60;;;;;;4972679;28;20047;-56
2022/03/26 02:06:31;;;;;;;19.85;12.38;;;179.20;1945.60;;;;;;4972649;28;20030;-56
2022/03/26 02:09:02;;;;;;;21.50;12.27;;;179.20;1971.20;;;;;;4972360;28;20035;-56
2022/03/26 02:11:32;;;;;;;21.08;11.48;;;154.50;1996.80;;;;;;4972228;28;20417;-56
2022/03/26 02:13:58;;;;;;;17.38;10.10;;;154.50;1971.20;;;;;;4972404;28;20030;-57
2022/03/26 02:16:25;;;;;;;19.40;10.98;;;154.50;1971.20;;;;;;4972582;28;20034;-56
2022/03/26 02:18:52;;;;;;;17.13;10.18;;;154.50;1971.20;;;;;;4972608;28;20023;-57
2022/03/26 02:21:20;;;;;;;20.83;11.73;;;154.50;1971.20;;;;;;4972308;28;20065;-56
2022/03/26 02:23:49;;;;;;;19.65;10.90;;;154.40;1996.80;;;;;;4972101;28;20030;-56
2022/03/26 02:26:20;;;;;;;18.27;10.80;;;154.40;1996.80;;;;;;4972284;28;20154;-56
2022/03/26 02:28:46;;;;;;;20.63;10.55;;;154.30;1996.80;;;;;;4972128;28;20031;-56
2022/03/26 02:31:16;;;;;;;21.27;12.82;;;154.30;1996.80;;;;;;4972431;28;20157;-56
2022/03/26 02:33:42;;;;;;;17.23;10.82;;;154.40;1996.80;;;;;;4972141;28;20019;-56
2022/03/26 02:36:09;;;;;;;21.05;13.35;;;154.50;1971.20;;;;;;4971996;28;20045;-55
2022/03/26 02:38:36;;;;;;;21.00;12.98;;;154.50;1971.20;;;;;;4971994;28;20046;-56
2022/03/26 02:41:02;;;;;;;24.05;10.98;;;154.50;1971.20;;;;;;4972235;28;20046;-56
2022/03/26 02:43:28;;;;;;;17.73;9.30;;;154.40;1996.80;;;;;;4971603;28;20029;-56
2022/03/26 02:45:54;;;;;;;16.75;10.63;;;154.40;1996.80;;;;;;4972065;28;20023;-56
2022/03/26 02:48:20;;;;;;;23.02;13.23;;;154.50;1996.80;;;;;;4971817;28;20067;-56
2022/03/26 02:50:46;;;;;;;19.00;11.20;;;154.50;1996.80;;;;;;4971698;28;20030;-57
2022/03/26 02:53:12;;;;;;;15.88;9.85;;;154.40;2022.40;;;;;;4971930;28;20065;-56
2022/03/26 02:55:39;;;;;;;16.30;9.90;;;154.30;2022.40;;;;;;4971490;28;20514;-56
2022/03/26 02:58:06;;;;;;;19.90;10.13;;;154.20;2022.40;;;;;;4971938;28;20070;-56
2022/03/26 03:00:32;;;;;;;29.10;11.55;;;154.50;1996.80;;;;;;4971879;28;20105;-56
2022/03/26 03:02:58;;;;;;;22.90;11.77;;;154.40;1996.80;;;;;;4971392;28;20125;-56
2022/03/26 03:05:24;;;;;;;63.22;45.33;;;154.40;1996.80;;;;;;4971744;28;20039;-57
2022/03/26 03:07:50;;;;;;;22.38;14.35;;;154.30;2022.40;;;;;;4971587;28;20074;-56
2022/03/26 03:10:17;;;;;;;27.55;16.17;;;154.30;2022.40;;;;;;4970659;28;20043;-57
2022/03/26 03:12:44;;;;;;;18.15;10.57;;;154.30;2022.40;;;;;;4971370;28;20051;-55
2022/03/26 03:15:10;;;;;;;21.92;12.32;;;154.30;2048.00;;;;;;4950640;29;20047;-55
2022/03/26 03:17:38;;;;;;;20.75;11.40;;;154.20;2048.00;;;;;;4969331;28;20074;-57
2022/03/26 03:20:05;;;;;;;18.92;11.15;;;154.20;2048.00;;;;;;4950989;29;20406;-56
2022/03/26 03:22:32;;;;;;;23.65;13.68;;;154.30;2048.00;;;;;;4968598;28;20031;-56
2022/03/26 03:24:58;;;;;;;23.98;13.85;;;154.20;2048.00;;;;;;4971236;28;20397;-56
2022/03/26 03:27:24;;;;;;;20.02;12.35;;;154.30;2022.40;;;;;;4971665;28;20096;-56
2022/03/26 03:29:50;;;;;;;16.58;10.43;;;154.30;2048.00;;;;;;4971477;28;20508;-56
2022/03/26 03:32:16;;;;;;;23.25;10.70;;;154.30;2048.00;;;;;;4971186;28;20470;-57
2022/03/26 03:34:42;;;;;;;18.75;12.35;;;154.20;2048.00;;;;;;4971352;28;20386;-56
2022/03/26 03:37:08;;;;;;;22.58;14.05;;;154.30;2073.60;;;;;;4971197;28;20034;-56
2022/03/26 03:39:33;;;;;;;22.38;16.15;;;154.20;2073.60;;;;;;4971315;28;20544;-56
2022/03/26 03:41:59;;;;;;;19.23;13.07;;;154.20;2048.00;;;;;;4970870;28;20366;-56
2022/03/26 03:44:25;;;;;;;22.33;13.07;;;154.20;2073.60;;;;;;4971337;28;20478;-56
2022/03/26 03:46:52;;;;;;;21.42;11.38;;;154.10;2099.20;;;;;;4971494;28;20019;-56
2022/03/26 03:49:18;;;;;;;19.05;11.55;;;154.10;2099.20;;;;;;4971011;28;20035;-57
2022/03/26 03:51:44;;;;;;;19.45;11.55;;;154.10;2099.20;;;;;;4971263;28;20098;-56
2022/03/26 03:54:10;;;;;;;20.40;11.65;;;154.10;2099.20;;;;;;4970930;28;20122;-56
2022/03/26 03:56:36;;;;;;;20.70;11.05;;;154.10;2124.80;;;;;;4970764;28;20026;-57
2022/03/26 03:59:03;;;;;;;18.85;10.38;;;154.00;2124.80;;;;;;4971152;28;20109;-56
2022/03/26 04:01:28;;;;;;;21.75;11.90;;;154.00;2150.40;;;;;;4970771;28;20066;-56
2022/03/26 04:03:54;;;;;;;22.13;12.73;;;154.00;2176.00;;;;;;4971211;28;20078;-57
2022/03/26 04:06:20;;;;;;;17.98;10.77;;;154.00;2176.00;;;;;;4971049;28;20477;-56
2022/03/26 04:08:46;;;;;;;20.48;11.77;;;154.00;2176.00;;;;;;4970709;28;20031;-57
2022/03/26 04:11:11;;;;;;;20.55;12.32;;;154.00;2176.00;;;;;;4970941;28;20015;-56
2022/03/26 04:13:37;;;;;;;18.30;12.30;;;154.00;2201.60;;;;;;4970691;28;20030;-56
2022/03/26 04:16:03;;;;;;;23.27;12.70;;;153.90;2227.20;;;;;;4971167;28;20035;-56
2022/03/26 04:18:29;;;;;;;46.03;22.80;;;153.90;2227.20;;;;;;4970955;28;20054;-56
2022/03/26 04:20:55;;;;;;;54.50;29.25;;;154.00;2252.80;;;;;;4971639;28;20381;-56
2022/03/26 04:23:21;;;;;;;81.50;42.40;;;153.80;2252.80;;;;;;4974731;28;20355;-56
2022/03/26 04:25:47;;;;;;;163.57;82.20;;;153.80;2252.80;;;;;;4974015;28;20033;-57
2022/03/26 04:28:13;;;;;;;121.47;61.38;;;153.80;2252.80;;;;;;4974645;28;20019;-56
2022/03/26 04:30:40;;;;;;;191.60;91.43;;;154.00;2252.80;;;;;;4974260;28;20030;-57
2022/03/26 04:33:06;;;;;;;151.50;66.93;;;154.00;2252.80;;;;;;4974533;28;20076;-56
2022/03/26 04:35:31;;;;;;;54.55;26.40;;;154.10;2252.80;;;;;;4974299;28;20176;-56
2022/03/26 04:37:57;;;;;;;97.45;49.13;;;154.20;2227.20;;;;;;4974153;28;20034;-57
2022/03/26 04:40:24;;;;;;;38.13;21.27;;;154.20;2252.80;;;;;;4974277;28;20386;-56
2022/03/26 04:42:51;;;;;;;24.48;13.63;;;154.10;2252.80;;;;;;4974018;28;20393;-56
2022/03/26 04:45:17;;;;;;;21.67;11.82;;;154.10;2252.80;;;;;;4974126;28;20038;-57
2022/03/26 04:47:43;;;;;;;20.73;12.52;;;154.10;2252.80;;;;;;4974308;28;20054;-56
2022/03/26 04:50:10;;;;;;;32.40;18.10;;;154.10;2252.80;;;;;;4973780;28;20409;-57
2022/03/26 04:52:35;;;;;;;39.00;19.58;;;154.20;2252.80;;;;;;4974039;28;20027;-57
2022/03/26 04:55:02;;;;;;;38.63;20.63;;;154.30;2252.80;;;;;;4970574;28;20434;-56
2022/03/26 04:57:29;;;;;;;37.00;18.15;;;154.40;2252.80;;;;;;4962990;28;20054;-56
2022/03/26 04:59:55;;;;;;;49.58;25.17;;;154.50;2201.60;;;;;;4963786;28;20114;-57
2022/03/26 05:02:21;;;;;;;42.92;26.70;;;179.20;2227.20;;;;;;4962143;28;20492;-56
2022/03/26 05:04:47;;;;;;;31.77;18.20;;;179.30;2227.20;;;;;;4962981;28;20058;-57
2022/03/26 05:09:57;;;;;;;30.98;17.30;;;179.50;2201.60;;;;;;4956049;28;20054;-57
2022/03/26 05:12:22;;;;;;;24.77;12.50;;;179.70;2150.40;;;;;;4963842;28;20035;-55
2022/03/26 05:14:48;;;;;;;16.27;11.07;;;179.80;2124.80;;;;;;4962512;28;20031;-56
2022/03/26 05:17:14;;;;;;;18.80;12.70;;;179.70;2150.40;;;;;;4962290;28;20054;-55
2022/03/26 05:19:39;;;;;;;21.85;13.85;;;179.80;2150.40;;;;;;4962536;28;20445;-55
2022/03/26 05:22:05;;;;;;;20.52;12.68;;;179.80;2124.80;;;;;;4962010;28;20098;-57
2022/03/26 05:24:33;;;;;;;17.08;11.10;;;180.00;2099.20;;;;;;4962039;28;20026;-57
2022/03/26 05:27:00;;;;;;;21.05;12.32;;;180.10;2099.20;;;;;;4963379;28;20516;-54
2022/03/26 05:29:26;;;;;;;13.75;9.88;;;180.10;2099.20;;;;;;4962094;28;20037;-61
2022/03/26 05:31:52;;;;;;;18.77;12.55;;;204.90;2048.00;;;;;;4961984;28;20027;-56
2022/03/26 05:34:18;;;;;;;23.05;14.55;;;205.00;2048.00;;;;;;4962661;28;20030;-59
2022/03/26 05:36:43;;;;;;;27.90;16.63;;;205.10;2048.00;;;;;;4961726;28;20030;-59
2022/03/26 05:39:09;;;;;;;35.50;19.92;;;205.00;2048.00;;;;;;4961700;28;20030;-58
2022/03/26 05:41:35;;;;;;;51.97;21.42;;;205.20;2022.40;;;;;;4962703;28;20058;-59
2022/03/26 05:44:01;;;;;;;31.40;17.15;;;205.40;1996.80;;;;;;4961556;28;20031;-60
2022/03/26 05:46:27;;;;;;;21.77;15.15;;;230.60;1945.60;;;;;;4961852;28;20093;-62
2022/03/26 05:48:53;;;;;;;22.58;14.18;;;256.00;1817.60;;;;;;4963003;28;20039;-58
2022/03/26 05:51:18;;;;;;;17.92;13.00;;;256.60;1766.40;;;;;;4960759;28;20390;-58
2022/03/26 05:53:44;;;;;;;21.38;12.98;;;282.00;1715.20;;;;;;4962388;28;20031;-59
2022/03/26 05:56:10;;;;;;;24.95;14.25;;;307.60;1664.00;;;;;;4962064;28;20478;-58
2022/03/26 05:58:36;;;;;;;16.50;12.45;;;333.20;1612.80;;;;;;4960605;28;20031;-58
2022/03/26 06:01:02;;;;;;;23.67;13.85;;;333.40;1561.60;;;;;;4962787;28;20023;-57
2022/03/26 06:03:28;;;;;;;27.35;14.43;;;358.90;1510.40;;;;;;4961337;28;20035;-60
2022/03/26 06:05:54;;;;;;;26.73;14.75;;;384.40;1433.60;;;;;;4953040;28;20043;-60
2022/03/26 06:08:19;;;;;;;24.27;15.35;;;410.20;1382.40;;;;;;4953260;29;20359;-58
2022/03/26 06:10:45;;;;;;;39.40;23.58;;;460.80;1331.20;;;;;;4952997;29;20027;-58
2022/03/26 06:13:11;;;;;;;42.72;26.90;;;486.80;1228.80;;;;;;4953235;29;20020;-59
2022/03/26 06:15:37;;;;;;;39.40;22.92;;;512.00;1177.60;;;;;;4953060;29;20457;-58
2022/03/26 06:18:03;;;;;;;25.00;16.52;;;512.90;1126.40;;;;;;4953134;29;20102;-58
2022/03/26 06:20:29;;;;;;;23.38;15.82;;;563.30;1075.20;;;;;;4953154;29;20024;-59
2022/03/26 06:22:56;;;;;;;20.65;14.95;;;589.10;1024.00;;;;;;4953003;29;20478;-59
2022/03/26 06:25:21;;;;;;;26.77;15.75;;;614.50;972.80;;;;;;4953112;29;20023;-64
2022/03/26 06:27:48;;;;;;;24.50;18.27;;;615.00;998.40;;;;;;4952739;29;20489;-61
2022/03/26 06:30:14;;;;;;;28.85;21.25;;;614.80;972.80;;;;;;4953081;29;20035;-59
2022/03/26 06:32:40;;;;;;;25.52;18.90;;;615.30;947.20;;;;;;4952819;29;20046;-59
2022/03/26 06:35:06;;;;;;;24.98;20.08;;;640.50;921.60;;;;;;4952652;29;20028;-65
2022/03/26 06:37:32;;;;;;;36.85;29.40;;;665.70;896.00;;;;;;4952860;29;20032;-64
2022/03/26 06:39:58;;;;;;;27.83;25.05;;;666.50;870.40;;;;;;4952608;29;20019;-64
2022/03/26 06:42:25;;;;;;;28.08;23.40;;;691.70;844.80;;;;;;4952780;29;20360;-59
2022/03/26 06:44:52;;;;;;;25.17;21.60;;;691.40;870.40;;;;;;4952241;28;20113;-59
2022/03/26 06:47:18;;;;;;;20.15;18.25;;;692.10;844.80;;;;;;4952473;29;20023;-61
2022/03/26 06:49:43;;;;;;;26.90;18.65;;;717.30;844.80;;;;;;4952428;29;20937;-62
2022/03/26 06:52:09;;;;;;;22.20;19.38;;;666.10;896.00;;;;;;4959136;28;20054;-58
2022/03/26 06:54:35;;;;;;;25.38;21.17;;;665.80;896.00;;;;;;4956497;28;20039;-61
2022/03/26 06:57:01;;;;;;;31.63;28.52;;;666.00;896.00;;;;;;4951643;29;20446;-59
2022/03/26 06:59:26;;;;;;;93.75;85.80;;;692.10;870.40;;;;;;4952354;29;20089;-62
2022/03/26 07:01:52;;;;;;;37.08;33.13;;;691.90;870.40;;;;;;4952568;29;20020;-59
2022/03/26 07:04:18;;;;;;;25.40;22.83;;;716.90;896.00;;;;;;4952140;29;20082;-61
2022/03/26 07:06:44;;;;;;;27.73;24.90;;;743.10;819.20;;;;;;4952571;29;20031;-60
2022/03/26 07:09:10;;;;;;;29.65;26.40;;;742.80;844.80;;;;;;4951962;29;20070;-60
2022/03/26 07:11:35;;;;;;;29.98;26.38;;;743.00;844.80;;;;;;4951982;29;20031;-60
2022/03/26 07:14:01;;;;;;;29.20;24.38;;;768.30;819.20;;;;;;4952439;29;20071;-59
2022/03/26 07:16:27;;;;;;;28.40;23.02;;;793.70;844.80;;;;;;4952286;29;20056;-66
2022/03/26 07:18:52;;;;;;;25.48;22.17;;;794.40;819.20;;;;;;4952486;29;20042;-63
2022/03/26 07:21:18;;;;;;;25.98;22.75;;;819.20;793.60;;;;;;4951956;29;20027;-66
2022/03/26 07:23:44;;;;;;;24.38;20.77;;;793.70;819.20;;;;;;4952251;29;20493;-60
2022/03/26 07:26:09;;;;;;;21.77;19.58;;;793.70;819.20;;;;;;4952080;29;20019;-60
2022/03/26 07:28:35;;;;;;;26.55;22.98;;;768.70;793.60;;;;;;4951703;29;20043;-61
2022/03/26 07:31:01;;;;;;;32.15;28.77;;;819.40;793.60;;;;;;4952352;29;20031;-61
2022/03/26 07:33:27;;;;;;;34.20;30.48;;;794.50;793.60;;;;;;4951858;29;20121;-62
2022/03/26 07:35:53;;;;;;;36.67;32.80;;;819.30;793.60;;;;;;4952261;29;20386;-60
2022/03/26 07:38:19;;;;;;;35.45;31.92;;;794.00;819.20;;;;;;4951956;29;20027;-61
2022/03/26 07:40:45;;;;;;;35.28;32.08;;;768.90;819.20;;;;;;4952055;29;20148;-60
2022/03/26 07:43:10;;;;;;;44.78;32.28;;;819.30;793.60;;;;;;4951890;29;20039;-62
2022/03/26 07:45:37;;;;;;;37.78;33.65;;;819.60;768.00;;;;;;4951726;29;20122;-64
2022/03/26 07:48:03;;;;;;;42.10;36.75;;;819.60;793.60;;;;;;4952126;29;20030;-62
2022/03/26 07:50:29;;;;;;;42.17;37.05;;;819.40;793.60;;;;;;4951750;29;20094;-63
2022/03/26 07:52:55;;;;;;;39.70;34.60;;;794.50;793.60;;;;;;4951806;29;20027;-64
2022/03/26 07:55:20;;;;;;;43.33;36.10;;;845.40;742.40;;;;;;4952009;28;20102;-61
2022/03/26 07:57:46;;;;;;;41.65;37.28;;;845.50;742.40;;;;;;4955164;29;20034;-61
2022/03/26 08:00:12;;;;;;;41.78;37.50;;;819.80;742.40;;;;;;4955724;29;20062;-62
2022/03/26 08:02:38;;;;;;;32.85;29.52;;;819.30;768.00;;;;;;4955588;29;20478;-62
2022/03/26 08:05:05;;;;;;;31.60;28.40;;;819.80;742.40;;;;;;4955443;29;20131;-62
2022/03/26 08:07:31;;;;;;;35.28;31.70;;;870.50;691.20;;;;;;4955699;29;20035;-65
2022/03/26 08:09:57;;;;;;;31.77;28.25;;;845.40;742.40;;;;;;4955311;29;20553;-61
2022/03/26 08:12:23;;;;;;;34.05;30.65;;;820.10;716.80;;;;;;4955500;29;20086;-65
2022/03/26 08:14:48;;;;;;;32.83;29.63;;;845.20;716.80;;;;;;4955404;29;20062;-62
2022/03/26 08:17:14;;;;;;;30.88;25.30;;;871.30;665.60;;;;;;4955485;29;20113;-62
2022/03/26 08:19:40;;;;;;;30.48;27.35;;;870.90;665.60;;;;;;4955122;29;20520;-60
2022/03/26 08:22:06;;;;;;;26.75;24.00;;;896.60;640.00;;;;;;4955285;29;20023;-62
2022/03/26 08:24:32;;;;;;;27.10;21.95;;;896.10;640.00;;;;;;4955372;29;20040;-61
2022/03/26 08:26:58;;;;;;;29.27;22.80;;;896.80;614.40;;;;;;4955071;29;20034;-61
2022/03/26 08:29:24;;;;;;;23.13;20.35;;;870.70;665.60;;;;;;4955168;29;20090;-64
2022/03/26 08:31:51;;;;;;;23.30;20.90;;;845.50;640.00;;;;;;4955200;29;20115;-62
2022/03/26 08:34:18;;;;;;;20.55;18.48;;;896.00;640.00;;;;;;4954958;29;20094;-60
2022/03/26 08:36:44;;;;;;;25.02;18.55;;;896.90;614.40;;;;;;4955119;29;20023;-62
2022/03/26 08:39:10;;;;;;;23.50;19.48;;;896.50;588.80;;;;;;4954752;29;20054;-64
2022/03/26 08:41:35;;;;;;;52.13;46.65;;;922.00;588.80;;;;;;4954776;29;20055;-61
2022/03/26 08:44:01;;;;;;;27.08;24.33;;;922.00;614.40;;;;;;4954973;29;20027;-64
2022/03/26 08:46:27;;;;;;;19.33;17.30;;;922.50;588.80;;;;;;4954807;29;20039;-61
2022/03/26 08:48:53;;;;;;;22.27;20.05;;;922.50;588.80;;;;;;4954940;29;20042;-62
2022/03/26 08:51:19;;;;;;;20.15;17.95;;;896.70;588.80;;;;;;4954619;29;20043;-60
2022/03/26 08:53:44;;;;;;;84.35;56.30;;;871.10;614.40;;;;;;4954692;29;20430;-62
2022/03/26 08:56:11;;;;;;;72.55;49.55;;;870.90;614.40;;;;;;4954561;29;20042;-61
2022/03/26 08:58:37;;;;;;;22.05;16.02;;;871.30;614.40;;;;;;4954406;29;20043;-60
2022/03/26 09:01:03;;;;;;;20.20;15.93;;;820.10;640.00;;;;;;4954514;29;20726;-64
2022/03/26 09:03:29;;;;;;;22.15;19.77;;;794.30;665.60;;;;;;4954386;29;20138;-61
2022/03/26 09:05:57;;;;;;;19.90;16.00;;;768.30;691.20;;;;;;4954491;29;20098;-66
2022/03/26 09:08:24;;;;;;;17.27;14.95;;;742.90;716.80;;;;;;4953544;28;20398;-64
2022/03/26 09:10:50;;;;;;;15.70;13.48;;;717.20;768.00;;;;;;4954496;29;20031;-64
2022/03/26 09:13:16;;;;;;;16.33;13.32;;;691.60;768.00;;;;;;4954257;29;20108;-60
2022/03/26 09:15:42;;;;;;;21.33;15.52;;;691.20;793.60;;;;;;4954287;29;20545;-63
2022/03/26 09:18:08;;;;;;;20.60;15.32;;;666.00;819.20;;;;;;4954190;29;20078;-65
2022/03/26 09:20:35;;;;;;;23.52;14.68;;;640.70;844.80;;;;;;4954475;29;20581;-62
2022/03/26 09:23:01;;;;;;;23.17;16.00;;;640.30;819.20;;;;;;4954318;29;20038;-61
2022/03/26 09:25:29;;;;;;;19.73;14.25;;;640.00;844.80;;;;;;4954127;29;20053;-60
2022/03/26 09:27:54;;;;;;;28.48;15.55;;;615.30;870.40;;;;;;4954098;29;20031;-63
2022/03/26 09:30:20;;;;;;;16.77;11.52;;;615.10;870.40;;;;;;4954280;29;20038;-61
2022/03/26 09:32:46;;;;;;;24.95;14.77;;;614.50;870.40;;;;;;4954098;29;20106;-60
2022/03/26 09:35:13;;;;;;;24.10;13.77;;;589.50;896.00;;;;;;4954218;29;20028;-62
2022/03/26 09:37:40;;;;;;;19.45;14.55;;;589.40;896.00;;;;;;4953772;29;20071;-60
2022/03/26 09:40:07;;;;;;;22.02;13.52;;;563.80;921.60;;;;;;4953969;29;20023;-60
2022/03/26 09:42:34;;;;;;;20.13;12.30;;;564.10;896.00;;;;;;4953726;29;20110;-65
2022/03/26 09:44:59;;;;;;;20.95;10.05;;;588.90;921.60;;;;;;4953772;29;20075;-60
2022/03/26 09:47:25;;;;;;;17.67;12.73;;;588.90;921.60;;;;;;4953705;29;20490;-63
2022/03/26 09:49:51;;;;;;;23.67;14.73;;;564.00;921.60;;;;;;4953789;29;20035;-59
2022/03/26 09:52:17;;;;;;;20.58;13.23;;;538.50;921.60;;;;;;4953448;29;20478;-60
2022/03/26 09:54:44;;;;;;;14.68;9.85;;;538.30;972.80;;;;;;4953852;29;20111;-61
2022/03/26 09:57:09;;;;;;;15.25;10.00;;;563.20;947.20;;;;;;4953413;29;20529;-60
2022/03/26 09:59:35;;;;;;;13.40;9.43;;;538.50;947.20;;;;;;4953391;29;20139;-60
2022/03/26 10:02:02;;;;;;;21.15;13.60;;;563.40;972.80;;;;;;4953476;29;20028;-60
2022/03/26 10:04:37;;;;;;;18.90;13.32;;;563.50;972.80;;;;;;4953116;29;20051;-60
2022/03/26 10:07:04;;;;;;;15.05;12.55;;;563.80;972.80;;;;;;4953598;29;20118;-60
2022/03/26 10:09:35;;;;;;;11.82;9.63;;;563.70;972.80;;;;;;4953347;29;20031;-60
2022/03/26 10:12:04;;;;;;;14.15;11.20;;;563.80;947.20;;;;;;4953295;29;20031;-60
2022/03/26 10:14:39;;;;;;;16.42;12.50;;;563.60;1024.00;;;;;;4932935;29;20047;-60
2022/03/26 10:17:28;;;;;;;20.98;13.20;;;563.70;972.80;;;;;;4953354;29;20222;-59
2022/03/26 10:19:55;;;;;;;24.90;18.23;;;563.40;972.80;;;;;;4953252;28;20034;-60
2022/03/26 10:22:25;;;;;;;45.67;33.50;;;538.10;972.80;;;;;;4953288;29;20066;-60
2022/03/26 10:24:52;;;;;;;20.33;11.13;;;538.30;947.20;;;;;;4953247;29;20118;-63
2022/03/26 10:27:18;;;;;;;17.77;11.13;;;538.40;972.80;;;;;;4952966;29;20035;-60
2022/03/26 10:29:56;;;;;;;20.48;11.93;;;538.50;972.80;;;;;;4953044;29;20106;-59
2022/03/26 10:32:39;;;;;;;16.35;12.18;;;563.20;1024.00;;;;;;4953203;29;20035;-62
2022/03/26 10:35:07;;;;;;;20.98;14.00;;;538.30;998.40;;;;;;4953090;29;20118;-64
2022/03/26 10:37:48;;;;;;;24.15;13.18;;;538.50;972.80;;;;;;4952981;29;20020;-59
2022/03/26 10:40:26;;;;;;;18.05;11.60;;;538.30;972.80;;;;;;4952898;29;20379;-59
2022/03/26 10:42:56;;;;;;;16.65;10.65;;;538.10;972.80;;;;;;4952870;29;20030;-61
2022/03/26 10:45:23;;;;;;;13.32;9.80;;;538.30;947.20;;;;;;4952923;29;20540;-59
2022/03/26 10:47:52;;;;;;;17.20;11.57;;;538.50;1024.00;;;;;;4952520;29;20070;-59
2022/03/26 10:50:18;;;;;;;16.48;9.95;;;538.40;972.80;;;;;;4952335;29;20118;-62
2022/03/26 10:52:44;;;;;;;16.67;12.80;;;563.20;972.80;;;;;;4952611;29;20066;-64
2022/03/26 10:55:18;;;;;;;14.50;10.82;;;538.50;972.80;;;;;;4952733;29;20035;-65
2022/03/26 10:57:46;;;;;;;16.58;11.48;;;538.20;972.80;;;;;;4952455;29;20035;-59
2022/03/26 11:00:17;;;;;;;13.30;9.63;;;538.00;998.40;;;;;;4952423;29;20067;-59
2022/03/26 11:02:44;;;;;;;16.98;10.05;;;537.90;972.80;;;;;;4952491;29;20102;-64
2022/03/26 11:05:11;;;;;;;12.95;10.27;;;512.90;972.80;;;;;;4952094;29;20054;-59
2022/03/26 11:07:39;;;;;;;19.90;12.05;;;537.80;972.80;;;;;;4952291;29;20031;-59
2022/03/26 11:10:06;;;;;;;20.38;11.15;;;538.30;1024.00;;;;;;4952622;29;20398;-58
2022/03/26 11:12:33;;;;;;;16.67;10.23;;;538.30;972.80;;;;;;4952237;29;20043;-59
2022/03/26 11:15:02;;;;;;;17.30;11.50;;;538.40;972.80;;;;;;4952197;29;20058;-58
2022/03/26 11:17:58;;;;;;;19.17;11.63;;;538.10;998.40;;;;;;4952154;29;20038;-65
2022/03/26 11:20:42;;;;;;;16.98;11.00;;;537.80;972.80;;;;;;4952483;29;20418;-61
2022/03/26 11:23:23;;;;;;;21.23;13.80;;;537.80;998.40;;;;;;4952254;29;20501;-58
2022/03/26 11:26:22;;;;;;;15.05;9.50;;;538.00;972.80;;;;;;4952060;29;20160;-59
2022/03/26 11:28:59;;;;;;;14.93;8.80;;;538.00;972.80;;;;;;4951977;29;20048;-58
2022/03/26 11:31:33;;;;;;;12.23;8.98;;;538.10;947.20;;;;;;4951426;28;20039;-59
2022/03/26 11:34:04;;;;;;;20.77;11.27;;;538.20;972.80;;;;;;4952063;29;20031;-59
2022/03/26 11:36:30;;;;;;;13.07;9.15;;;537.70;972.80;;;;;;4951735;29;20038;-59
2022/03/26 11:39:07;;;;;;;15.95;9.38;;;537.70;972.80;;;;;;4952132;29;20027;-62
2022/03/26 11:41:34;;;;;;;28.30;17.75;;;537.90;972.80;;;;;;4951906;29;20066;-58
2022/03/26 11:44:01;;;;;;;23.77;11.48;;;538.00;998.40;;;;;;4951886;29;20035;-58
2022/03/26 11:50:41;;;;;;;16.67;11.20;;;538.50;998.40;;;;;;4952172;29;20051;-58
2022/03/26 11:52:33;;;;;;;19.40;9.30;;;538.50;972.80;;;;;;4951807;29;20069;-59
2022/03/26 11:55:14;;;;;;;17.13;11.43;;;537.90;947.20;;;;;;4951619;29;20030;-58
2022/03/26 11:57:40;;;;;;;46.22;26.20;;;538.30;972.80;;;;;;4951636;29;20032;-58
2022/03/26 12:00:17;;;;;;;13.80;9.23;;;538.00;947.20;;;;;;4951624;29;20178;-59
2022/03/26 12:02:52;;;;;;;36.13;11.50;;;538.20;972.80;;;;;;4951733;29;20386;-59
2022/03/26 12:08:16;;;;;;;16.95;9.55;;;538.00;947.20;;;;;;4945697;29;20058;-58
2022/03/26 12:10:43;;;;;;;13.18;8.75;;;538.10;947.20;;;;;;4951857;29;20509;-60
2022/03/26 12:13:09;;;;;;;12.48;8.52;;;538.30;921.60;;;;;;4951337;29;20062;-58